createdAt,value
2017-12-30T11:02:34.734Z,11.55
2017-12-30T11:17:34.655Z,11.98
2017-12-30T11:32:34.672Z,12.04
2017-12-30T11:47:34.625Z,11.77
2017-12-30T12:02:34.410Z,11.55
2017-12-30T12:17:34.178Z,10.87
2017-12-30T12:32:34.138Z,10.39
2017-12-30T12:47:34.144Z,9.85
2017-12-30T13:02:36.512Z,10.31
2017-12-30T13:17:34.372Z,9.07
2017-12-30T13:32:34.323Z,8.20
2017-12-30T13:47:34.539Z,7.46
2017-12-30T14:02:36.930Z,6.70
2017-12-30T14:17:37.049Z,6.01
2017-12-30T15:17:34.984Z,4.35
2017-12-30T15:47:36.547Z,3.90
2017-12-30T16:02:36.536Z,3.73
2017-12-30T16:17:34.422Z,3.56
2017-12-30T16:32:35.394Z,3.49
2017-12-30T16:47:40.208Z,3.39
2017-12-30T17:02:34.783Z,3.36
2017-12-30T17:17:34.756Z,3.27
2017-12-30T17:32:34.671Z,3.22
2017-12-30T17:47:34.528Z,3.15
2017-12-30T18:02:35.031Z,3.15
2017-12-30T18:17:35.056Z,3.15
2017-12-30T18:47:36.883Z,2.96
2017-12-30T19:02:38.268Z,2.96
2017-12-30T20:02:34.447Z,3.65
2017-12-30T20:17:36.484Z,3.34
2017-12-30T20:32:35.175Z,3.14
2017-12-30T20:47:35.152Z,3.05
2017-12-30T21:02:34.527Z,2.91
2017-12-30T21:17:36.640Z,2.74
2017-12-30T21:32:36.107Z,3.67
2017-12-30T21:47:34.595Z,3.12
2017-12-30T22:02:34.556Z,2.80
2017-12-30T22:17:34.705Z,2.65
2017-12-30T22:32:34.655Z,2.54
2017-12-30T22:47:34.728Z,2.43
2017-12-30T23:02:37.273Z,2.39
2017-12-30T23:17:34.895Z,2.32
2017-12-30T23:32:34.803Z,2.25
2017-12-30T23:47:35.372Z,2.19
